createdAt,value
2019-01-30T00:00:47.822Z,7.70
2019-01-30T00:01:46.798Z,7.70
2019-01-30T00:02:46.793Z,7.60
2019-01-30T00:03:46.782Z,7.40
2019-01-30T00:04:46.764Z,8.00
2019-01-30T00:05:46.776Z,8.00
2019-01-30T00:06:46.749Z,6.80
2019-01-30T00:07:46.730Z,7.80
2019-01-30T00:08:46.719Z,8.00
2019-01-30T00:09:46.709Z,7.40
2019-01-30T00:10:46.722Z,7.20
2019-01-30T00:11:46.700Z,7.20
2019-01-30T00:12:46.694Z,7.00
2019-01-30T00:13:46.662Z,7.50
2019-01-30T00:14:46.653Z,7.70
2019-01-30T00:15:55.786Z,7.20
2019-01-30T00:16:47.648Z,7.80
2019-01-30T00:17:46.616Z,6.60
2019-01-30T00:18:46.616Z,6.60
2019-01-30T00:19:46.597Z,6.90
2019-01-30T00:20:46.583Z,7.70
2019-01-30T00:21:46.609Z,6.90
2019-01-30T00:22:46.565Z,7.20
2019-01-30T00:23:46.556Z,6.60
2019-01-30T00:24:46.559Z,7.00
2019-01-30T00:25:46.537Z,7.10
2019-01-30T00:26:46.537Z,6.80
2019-01-30T00:27:46.504Z,7.10
2019-01-30T00:28:46.506Z,7.00
2019-01-30T00:29:46.487Z,6.80
2019-01-30T00:30:46.475Z,7.00
2019-01-30T00:31:46.503Z,7.00
2019-01-30T00:32:46.452Z,7.10
2019-01-30T00:33:46.459Z,6.60
2019-01-30T00:34:46.430Z,6.80
2019-01-30T00:35:46.420Z,6.60
2019-01-30T00:36:46.407Z,6.70
2019-01-30T00:37:46.419Z,7.00
2019-01-30T00:38:46.384Z,6.10
2019-01-30T00:39:46.374Z,6.70
2019-01-30T00:40:46.365Z,6.40
2019-01-30T00:41:46.351Z,7.40
2019-01-30T00:42:46.367Z,7.00
2019-01-30T00:43:46.342Z,7.00
2019-01-30T00:44:46.329Z,7.00
2019-01-30T00:45:46.310Z,7.40
2019-01-30T00:46:46.300Z,6.90
2019-01-30T00:47:46.313Z,6.70
2019-01-30T00:48:46.284Z,7.20
2019-01-30T00:49:46.269Z,7.30
2019-01-30T00:50:46.262Z,6.90
2019-01-30T00:51:46.243Z,6.90
2019-01-30T00:52:46.268Z,6.90
2019-01-30T00:53:46.239Z,6.80
2019-01-30T00:54:46.213Z,6.70
2019-01-30T00:55:46.196Z,6.40
2019-01-30T00:56:46.192Z,7.40
2019-01-30T00:57:46.177Z,6.80
2019-01-30T00:58:46.185Z,6.40
2019-01-30T00:59:46.158Z,6.60
2019-01-30T01:00:46.151Z,6.80
2019-01-30T01:01:46.131Z,6.10
2019-01-30T01:02:46.141Z,7.00
2019-01-30T01:03:46.145Z,6.40
2019-01-30T01:04:46.097Z,6.50
2019-01-30T01:05:46.085Z,6.30
2019-01-30T01:06:46.076Z,6.40
2019-01-30T01:07:46.061Z,6.90
2019-01-30T01:08:46.081Z,6.20
2019-01-30T01:09:46.047Z,6.00
2019-01-30T01:10:46.036Z,6.40
2019-01-30T01:11:46.034Z,6.20
2019-01-30T01:12:46.010Z,6.30
2019-01-30T01:13:46.015Z,6.20
2019-01-30T01:14:45.990Z,6.80
2019-01-30T01:15:45.987Z,6.50
2019-01-30T01:16:45.972Z,6.60
2019-01-30T01:17:45.970Z,6.00
2019-01-30T01:18:45.984Z,6.80
2019-01-30T01:19:45.951Z,6.50
2019-01-30T01:20:45.921Z,6.40
2019-01-30T01:21:45.908Z,6.30
2019-01-30T01:22:45.904Z,5.80
2019-01-30T01:23:45.931Z,6.30
2019-01-30T01:24:45.874Z,6.50
2019-01-30T01:25:45.863Z,6.10
2019-01-30T01:26:45.854Z,6.20
2019-01-30T01:27:45.845Z,6.50
2019-01-30T01:28:45.836Z,6.30
2019-01-30T01:29:45.863Z,6.70
2019-01-30T01:30:45.809Z,7.00
2019-01-30T01:31:45.806Z,6.60
2019-01-30T01:32:46.856Z,6.80
2019-01-30T01:33:45.781Z,6.40
2019-01-30T01:34:45.790Z,6.20
2019-01-30T01:35:45.754Z,6.40
2019-01-30T01:36:45.755Z,7.20
2019-01-30T01:37:45.731Z,6.90
2019-01-30T01:38:45.722Z,6.90
2019-01-30T01:39:45.736Z,6.80
2019-01-30T01:40:45.705Z,6.70
2019-01-30T01:41:45.690Z,6.80
2019-01-30T01:42:45.693Z,6.80
2019-01-30T01:43:45.665Z,6.50
2019-01-30T01:44:45.657Z,6.70
2019-01-30T01:45:45.663Z,6.50
2019-01-30T01:46:45.633Z,6.20
2019-01-30T01:47:45.620Z,6.50
2019-01-30T01:48:45.620Z,6.30
2019-01-30T01:49:45.624Z,6.60
2019-01-30T01:50:45.603Z,6.50
2019-01-30T01:51:45.573Z,6.20
2019-01-30T01:52:45.564Z,6.80
2019-01-30T01:53:45.563Z,6.60
2019-01-30T01:54:45.551Z,5.70
2019-01-30T01:55:45.558Z,6.80
2019-01-30T01:56:45.534Z,6.60
2019-01-30T01:57:45.516Z,6.60
2019-01-30T01:58:45.497Z,6.60
2019-01-30T01:59:45.490Z,6.50
2019-01-30T02:00:45.496Z,6.40
2019-01-30T02:01:45.473Z,6.70
2019-01-30T02:02:45.465Z,6.30
2019-01-30T02:03:45.442Z,6.60
2019-01-30T02:04:45.439Z,6.60
2019-01-30T02:05:45.443Z,6.60
2019-01-30T02:06:45.410Z,6.40
2019-01-30T02:07:45.410Z,6.20
2019-01-30T02:08:45.396Z,6.50
2019-01-30T02:09:45.389Z,7.00
2019-01-30T02:10:45.393Z,6.30
2019-01-30T02:11:45.373Z,6.10
2019-01-30T02:12:45.345Z,6.50
2019-01-30T02:13:45.331Z,6.40
2019-01-30T02:14:45.322Z,6.20
2019-01-30T02:15:45.324Z,6.40
2019-01-30T02:16:45.319Z,6.10
2019-01-30T02:17:45.291Z,6.60
2019-01-30T02:18:45.281Z,6.30
2019-01-30T02:19:45.268Z,6.20
2019-01-30T02:20:45.256Z,6.60
2019-01-30T02:21:45.265Z,5.90
2019-01-30T02:22:45.231Z,6.00
2019-01-30T02:23:45.230Z,6.50
2019-01-30T02:24:45.224Z,6.10
2019-01-30T02:25:45.198Z,6.70
2019-01-30T02:26:45.214Z,6.00
2019-01-30T02:27:45.191Z,6.20
2019-01-30T02:28:45.163Z,6.10
2019-01-30T02:29:45.164Z,6.20
2019-01-30T02:30:47.611Z,6.60
2019-01-30T02:31:45.155Z,6.10
2019-01-30T02:32:45.125Z,6.40
2019-01-30T02:33:45.109Z,6.70
2019-01-30T02:34:45.109Z,6.30
2019-01-30T02:35:45.107Z,6.50
2019-01-30T02:36:45.095Z,6.30
2019-01-30T02:37:45.084Z,6.30
2019-01-30T02:38:45.052Z,6.40
2019-01-30T02:39:45.044Z,6.40
2019-01-30T02:40:45.033Z,6.20
2019-01-30T02:41:45.076Z,6.60
2019-01-30T02:42:45.029Z,6.10
2019-01-30T02:43:45.024Z,6.70
2019-01-30T02:44:44.991Z,6.60
2019-01-30T02:45:44.976Z,6.50
2019-01-30T02:46:44.967Z,6.50
2019-01-30T02:47:44.990Z,6.40
2019-01-30T02:48:44.954Z,6.80
2019-01-30T02:49:44.942Z,6.30
2019-01-30T02:50:44.926Z,6.70
2019-01-30T02:51:44.913Z,6.30
2019-01-30T02:52:44.897Z,6.70
2019-01-30T02:53:44.903Z,6.40
2019-01-30T02:54:44.882Z,6.80
2019-01-30T02:55:44.870Z,7.20
2019-01-30T02:56:44.855Z,6.60
2019-01-30T02:57:44.854Z,6.40
2019-01-30T02:58:44.855Z,6.90
2019-01-30T02:59:44.820Z,6.70
2019-01-30T03:00:44.823Z,6.70
2019-01-30T03:01:44.817Z,6.80
2019-01-30T03:02:44.806Z,6.60
2019-01-30T03:03:44.774Z,7.10
2019-01-30T03:04:44.774Z,7.00
2019-01-30T03:05:44.757Z,6.80
2019-01-30T03:06:44.768Z,6.40
2019-01-30T03:07:44.750Z,6.60
2019-01-30T03:08:44.739Z,7.00
2019-01-30T03:09:44.710Z,7.10
2019-01-30T03:10:44.700Z,6.60
2019-01-30T03:11:44.685Z,6.80
2019-01-30T03:12:44.676Z,6.80
2019-01-30T03:13:44.693Z,6.90
2019-01-30T03:14:44.676Z,6.70
2019-01-30T03:15:44.646Z,7.20
2019-01-30T03:16:44.646Z,6.40
2019-01-30T03:17:44.624Z,6.90
2019-01-30T03:18:44.612Z,7.10
2019-01-30T03:19:44.612Z,6.90
2019-01-30T03:20:44.599Z,7.20
2019-01-30T03:21:44.574Z,7.10
2019-01-30T03:22:44.565Z,6.80
2019-01-30T03:23:44.575Z,7.10
2019-01-30T03:24:44.538Z,6.80
2019-01-30T03:25:44.528Z,7.20
2019-01-30T03:26:44.526Z,7.30
2019-01-30T03:27:44.510Z,6.90
2019-01-30T03:28:44.501Z,7.20
2019-01-30T03:29:44.507Z,7.20
2019-01-30T03:30:44.489Z,6.90
2019-01-30T03:31:44.465Z,7.30
2019-01-30T03:32:44.459Z,7.60
2019-01-30T03:33:44.441Z,7.20
2019-01-30T03:34:44.448Z,7.40
2019-01-30T03:35:44.416Z,7.00
2019-01-30T03:36:44.417Z,6.90
2019-01-30T03:37:44.403Z,7.40
2019-01-30T03:38:44.395Z,7.10
2019-01-30T03:39:44.395Z,7.10
2019-01-30T03:40:44.364Z,7.10
2019-01-30T03:41:44.351Z,7.60
2019-01-30T03:42:44.341Z,7.10
2019-01-30T03:43:44.330Z,7.20
2019-01-30T03:44:44.358Z,7.10
2019-01-30T03:45:44.312Z,7.30
2019-01-30T03:46:44.298Z,7.30
2019-01-30T03:47:44.335Z,7.50
2019-01-30T03:48:44.277Z,7.20
2019-01-30T03:49:44.261Z,7.40
2019-01-30T03:50:44.277Z,7.40
2019-01-30T03:51:44.239Z,7.60
2019-01-30T03:52:44.229Z,7.20
2019-01-30T03:53:44.218Z,7.20
2019-01-30T03:54:44.215Z,6.90
2019-01-30T03:55:44.211Z,7.20
2019-01-30T03:56:44.206Z,7.00
2019-01-30T03:57:44.172Z,7.80
2019-01-30T03:58:44.162Z,7.20
2019-01-30T03:59:44.154Z,6.60
2019-01-30T04:00:44.164Z,7.80
2019-01-30T04:01:44.130Z,7.10
2019-01-30T04:02:44.126Z,7.80
2019-01-30T04:03:44.107Z,7.70
2019-01-30T04:04:44.095Z,7.70
2019-01-30T04:05:44.106Z,7.60
2019-01-30T04:06:44.093Z,7.40
2019-01-30T04:07:44.063Z,7.30
2019-01-30T04:08:44.054Z,7.50
2019-01-30T04:09:44.054Z,7.20
2019-01-30T04:10:44.031Z,7.40
2019-01-30T04:11:44.039Z,6.80
2019-01-30T04:12:44.013Z,7.60
2019-01-30T04:13:43.996Z,7.70
2019-01-30T04:14:43.991Z,7.60
2019-01-30T04:15:43.998Z,7.40
2019-01-30T04:16:43.996Z,7.20
2019-01-30T04:17:43.953Z,7.90
2019-01-30T04:18:43.940Z,7.00
2019-01-30T04:19:43.935Z,7.70
2019-01-30T04:20:43.929Z,7.50
2019-01-30T04:21:43.931Z,7.60
2019-01-30T04:22:43.915Z,7.60
2019-01-30T04:23:43.887Z,7.70
2019-01-30T04:24:43.877Z,7.20
2019-01-30T04:25:43.876Z,7.60
2019-01-30T04:26:43.861Z,7.90
2019-01-30T04:27:43.885Z,7.70
2019-01-30T04:28:43.828Z,7.80
2019-01-30T04:29:43.825Z,7.70
2019-01-30T04:30:43.809Z,7.20
2019-01-30T04:31:43.796Z,6.90
2019-01-30T04:32:43.802Z,7.00
2019-01-30T04:33:43.788Z,7.10
2019-01-30T04:34:43.763Z,7.60
2019-01-30T04:35:43.760Z,7.40
2019-01-30T04:36:43.744Z,7.50
2019-01-30T04:37:43.751Z,7.50
2019-01-30T04:38:43.730Z,7.10
2019-01-30T04:39:43.708Z,7.50
2019-01-30T04:40:43.700Z,7.70
2019-01-30T04:41:43.693Z,7.10
2019-01-30T04:42:43.715Z,7.40
2019-01-30T04:43:43.668Z,8.10
2019-01-30T04:44:43.664Z,7.50
2019-01-30T04:45:43.640Z,7.80
2019-01-30T04:46:43.645Z,7.80
2019-01-30T04:47:43.652Z,8.10
2019-01-30T04:48:43.607Z,8.10
2019-01-30T04:49:43.598Z,7.70
2019-01-30T04:50:43.585Z,7.80
2019-01-30T04:51:43.589Z,8.00
2019-01-30T04:52:43.581Z,7.50
2019-01-30T04:53:43.576Z,7.90
2019-01-30T04:54:43.543Z,7.60
2019-01-30T04:55:43.530Z,7.30
2019-01-30T04:56:43.525Z,8.00
2019-01-30T04:57:43.521Z,7.80
2019-01-30T04:58:43.525Z,7.40
2019-01-30T04:59:43.493Z,7.80
2019-01-30T05:00:43.478Z,7.20
2019-01-30T05:01:49.743Z,7.60
2019-01-30T05:02:44.457Z,7.70
2019-01-30T05:03:43.449Z,7.80
2019-01-30T05:04:43.452Z,7.70
2019-01-30T05:05:43.420Z,7.90
2019-01-30T05:06:43.527Z,7.60
2019-01-30T05:07:43.400Z,7.50
2019-01-30T05:08:43.386Z,7.80
2019-01-30T05:09:43.428Z,7.00
2019-01-30T05:10:43.369Z,8.00
2019-01-30T05:11:43.353Z,8.20
2019-01-30T05:12:43.364Z,7.60
2019-01-30T05:13:43.414Z,8.30
2019-01-30T05:14:43.344Z,7.40
2019-01-30T05:15:43.338Z,8.20
2019-01-30T05:16:43.299Z,8.90
2019-01-30T05:17:43.287Z,7.90
2019-01-30T05:18:43.289Z,8.40
2019-01-30T05:19:43.290Z,7.90
2019-01-30T05:20:43.255Z,8.10
2019-01-30T05:21:43.252Z,8.20
2019-01-30T05:22:43.239Z,8.30
2019-01-30T05:23:43.225Z,7.60
2019-01-30T05:24:43.225Z,8.40
2019-01-30T05:25:43.206Z,7.90
2019-01-30T05:26:43.202Z,7.90
2019-01-30T05:27:43.179Z,8.10
2019-01-30T05:28:43.177Z,7.70
2019-01-30T05:29:43.211Z,8.30
2019-01-30T05:30:43.143Z,8.00
2019-01-30T05:31:43.135Z,8.00
2019-01-30T05:32:43.119Z,7.80
2019-01-30T05:33:43.115Z,8.30
2019-01-30T05:34:43.113Z,8.30
2019-01-30T05:35:43.180Z,7.70
2019-01-30T05:36:43.077Z,8.20
2019-01-30T05:37:43.091Z,8.10
2019-01-30T05:38:43.054Z,8.40
2019-01-30T05:39:43.043Z,8.00
2019-01-30T05:40:43.056Z,7.70
2019-01-30T05:41:43.024Z,8.60
2019-01-30T05:42:43.011Z,7.60
2019-01-30T05:43:43.001Z,8.80
2019-01-30T05:44:42.991Z,8.10
2019-01-30T05:45:43.039Z,8.40
2019-01-30T05:46:42.973Z,8.20
2019-01-30T05:47:42.989Z,8.10
2019-01-30T05:48:42.944Z,7.90
2019-01-30T05:49:42.940Z,8.10
2019-01-30T05:50:42.966Z,8.00
2019-01-30T05:51:42.918Z,8.00
2019-01-30T05:52:42.902Z,8.30
2019-01-30T05:53:42.923Z,8.40
2019-01-30T05:54:42.884Z,8.80
2019-01-30T05:55:42.893Z,8.40
2019-01-30T05:56:42.857Z,8.30
2019-01-30T05:57:42.851Z,7.80
2019-01-30T05:58:42.837Z,8.70
2019-01-30T05:59:42.841Z,8.50
2019-01-30T06:00:42.822Z,8.70
2019-01-30T06:01:42.826Z,7.90
2019-01-30T06:02:42.793Z,8.10
2019-01-30T06:03:42.781Z,8.30
2019-01-30T06:04:42.768Z,8.10
2019-01-30T06:05:42.761Z,8.90
2019-01-30T06:06:42.764Z,8.30
2019-01-30T06:07:42.734Z,8.30
2019-01-30T06:08:42.730Z,8.70
2019-01-30T06:09:42.713Z,8.50
2019-01-30T06:10:42.766Z,8.70
2019-01-30T06:11:42.725Z,8.00
2019-01-30T06:12:42.714Z,8.60
2019-01-30T06:13:42.665Z,8.50
2019-01-30T06:14:42.656Z,9.00
2019-01-30T06:15:42.644Z,8.60
2019-01-30T06:16:42.672Z,8.60
2019-01-30T06:17:42.628Z,8.10
2019-01-30T06:18:42.613Z,8.90
2019-01-30T06:19:42.599Z,8.60
2019-01-30T06:20:42.591Z,8.80
2019-01-30T06:21:42.581Z,9.50
2019-01-30T06:22:42.594Z,9.30
2019-01-30T06:23:42.557Z,8.10
2019-01-30T06:24:42.548Z,9.00
2019-01-30T06:25:42.544Z,8.60
2019-01-30T06:26:42.540Z,9.10
2019-01-30T06:27:42.541Z,9.20
2019-01-30T06:28:42.501Z,8.70
2019-01-30T06:29:42.490Z,9.10
2019-01-30T06:30:42.485Z,9.60
2019-01-30T06:31:42.477Z,9.00
2019-01-30T06:32:42.475Z,9.10
2019-01-30T06:33:42.463Z,10.00
2019-01-30T06:34:42.434Z,9.80
2019-01-30T06:35:42.433Z,9.10
2019-01-30T06:36:42.423Z,9.50
2019-01-30T06:37:42.440Z,9.70
2019-01-30T06:38:42.390Z,9.60
2019-01-30T06:39:42.385Z,9.60
2019-01-30T06:40:42.371Z,9.40
2019-01-30T06:41:42.366Z,9.70
2019-01-30T06:42:42.378Z,9.70
2019-01-30T06:43:42.339Z,9.60
2019-01-30T06:44:42.325Z,9.30
2019-01-30T06:45:42.328Z,9.70
2019-01-30T06:46:42.316Z,9.00
2019-01-30T06:47:42.294Z,10.10
2019-01-30T06:48:42.317Z,9.80
2019-01-30T06:49:42.268Z,9.70
2019-01-30T06:50:42.262Z,9.60
2019-01-30T06:51:49.400Z,9.60
2019-01-30T06:52:42.273Z,10.20
2019-01-30T06:53:42.287Z,10.10
2019-01-30T06:54:42.249Z,9.90
2019-01-30T06:55:42.243Z,9.80
2019-01-30T06:56:42.239Z,9.60
2019-01-30T06:57:42.214Z,9.80
2019-01-30T06:58:42.225Z,9.50
2019-01-30T06:59:42.198Z,10.00
2019-01-30T07:00:42.216Z,9.60
2019-01-30T07:01:42.182Z,10.10
2019-01-30T07:02:42.170Z,9.90
2019-01-30T07:03:42.173Z,10.00
2019-01-30T07:04:42.174Z,9.90
2019-01-30T07:05:42.127Z,9.50
2019-01-30T07:06:42.121Z,10.50
2019-01-30T07:07:42.108Z,10.10
2019-01-30T07:08:42.127Z,10.40
2019-01-30T07:09:42.126Z,9.70
2019-01-30T07:10:42.103Z,9.80
2019-01-30T07:11:42.081Z,10.20
2019-01-30T07:12:42.071Z,10.20
2019-01-30T07:13:42.055Z,10.60
2019-01-30T07:14:42.065Z,10.60
2019-01-30T07:15:42.048Z,10.20
2019-01-30T07:16:42.045Z,10.10
2019-01-30T07:17:42.005Z,10.90
2019-01-30T07:18:42.036Z,11.30
2019-01-30T07:19:41.999Z,11.50
2019-01-30T07:20:41.967Z,11.60
2019-01-30T07:21:41.979Z,11.20
2019-01-30T07:22:41.982Z,11.10
2019-01-30T07:23:41.949Z,11.70
2019-01-30T07:24:41.947Z,11.50
2019-01-30T07:25:41.927Z,12.40
2019-01-30T07:26:41.953Z,12.40
2019-01-30T07:27:41.893Z,11.60
2019-01-30T07:28:41.876Z,12.60
2019-01-30T07:29:41.934Z,12.40
2019-01-30T07:30:41.864Z,17.50
2019-01-30T07:31:41.855Z,14.10
2019-01-30T07:32:42.433Z,12.60
2019-01-30T07:33:41.824Z,12.40
2019-01-30T07:34:41.813Z,13.20
2019-01-30T07:35:41.827Z,13.00
2019-01-30T07:36:41.804Z,13.50
2019-01-30T07:37:41.787Z,14.00
2019-01-30T07:38:41.768Z,12.60
2019-01-30T07:39:41.786Z,12.70
2019-01-30T07:40:41.784Z,13.00
2019-01-30T07:41:41.728Z,13.00
2019-01-30T07:42:41.738Z,14.50
2019-01-30T07:43:41.726Z,13.70
2019-01-30T07:44:50.476Z,13.50
2019-01-30T07:45:42.703Z,13.60
2019-01-30T07:46:41.674Z,13.20
2019-01-30T07:47:41.673Z,14.10
2019-01-30T07:48:41.664Z,13.50
2019-01-30T07:49:41.664Z,13.90
2019-01-30T07:50:41.675Z,14.30
2019-01-30T07:51:41.638Z,13.50
2019-01-30T07:52:41.603Z,15.10
2019-01-30T07:53:41.613Z,15.20
2019-01-30T07:54:41.586Z,14.90
2019-01-30T07:55:41.620Z,14.70
2019-01-30T07:56:41.571Z,15.20
2019-01-30T07:57:41.595Z,15.10
2019-01-30T07:58:41.537Z,15.90
2019-01-30T07:59:41.554Z,15.60
2019-01-30T08:00:41.566Z,14.90
2019-01-30T08:01:41.526Z,15.30
2019-01-30T08:02:41.499Z,15.80
2019-01-30T08:03:41.486Z,16.00
2019-01-30T08:04:41.474Z,15.60
2019-01-30T08:05:41.496Z,15.60
2019-01-30T08:06:41.461Z,15.30
2019-01-30T08:07:41.466Z,16.00
2019-01-30T08:08:41.440Z,16.10
2019-01-30T08:09:41.441Z,16.70
2019-01-30T08:10:41.429Z,17.00
2019-01-30T08:11:41.423Z,16.40
2019-01-30T08:12:41.385Z,17.40
2019-01-30T08:13:41.401Z,16.80
2019-01-30T08:14:41.373Z,17.80
2019-01-30T08:15:41.380Z,17.50
2019-01-30T08:16:41.341Z,17.60
2019-01-30T08:17:41.327Z,18.10
2019-01-30T08:18:41.344Z,18.10
2019-01-30T08:19:41.307Z,17.70
2019-01-30T08:20:41.306Z,17.90
2019-01-30T08:21:41.404Z,16.90
2019-01-30T08:22:41.460Z,17.10
2019-01-30T08:23:41.509Z,17.00
2019-01-30T08:24:41.254Z,18.60
2019-01-30T08:25:41.352Z,17.60
2019-01-30T08:26:41.380Z,18.70
2019-01-30T08:27:41.407Z,18.60
2019-01-30T08:28:41.529Z,18.40
2019-01-30T08:29:41.222Z,18.20
2019-01-30T08:30:41.498Z,17.90
2019-01-30T08:31:41.196Z,19.00
2019-01-30T08:32:41.357Z,18.80
2019-01-30T08:33:41.159Z,17.20
2019-01-30T08:34:41.158Z,17.60
2019-01-30T08:35:41.156Z,16.90
2019-01-30T08:36:41.133Z,18.20
2019-01-30T08:37:41.107Z,17.40
2019-01-30T08:38:41.098Z,17.60
2019-01-30T08:39:41.089Z,19.30
2019-01-30T08:40:41.086Z,18.10
2019-01-30T08:41:41.118Z,18.30
2019-01-30T08:42:41.120Z,17.20
2019-01-30T08:43:41.044Z,17.10
2019-01-30T08:44:46.858Z,16.70
2019-01-30T08:45:42.040Z,17.00
2019-01-30T08:46:41.007Z,17.00
2019-01-30T08:47:41.020Z,17.20
2019-01-30T08:48:41.083Z,16.20
2019-01-30T08:49:40.978Z,16.30
2019-01-30T08:50:40.988Z,16.10
2019-01-30T08:51:41.020Z,16.50
2019-01-30T08:52:40.963Z,16.70
2019-01-30T08:53:40.970Z,16.30
2019-01-30T08:54:40.918Z,18.20
2019-01-30T08:55:40.917Z,16.20
2019-01-30T08:56:52.434Z,16.40
2019-01-30T08:57:41.925Z,16.40
2019-01-30T08:58:40.896Z,17.20
2019-01-30T08:59:40.886Z,17.00
2019-01-30T09:00:40.881Z,16.40
2019-01-30T09:01:40.847Z,16.70
2019-01-30T09:02:40.868Z,16.80
2019-01-30T09:03:40.841Z,17.40
2019-01-30T09:04:40.835Z,15.60
2019-01-30T09:05:40.828Z,15.70
2019-01-30T09:06:40.787Z,15.30
2019-01-30T09:07:44.362Z,14.90
2019-01-30T09:08:40.766Z,17.20
2019-01-30T09:09:40.766Z,16.20
2019-01-30T09:10:40.744Z,16.70
2019-01-30T09:11:40.735Z,15.40
2019-01-30T09:12:40.814Z,16.70
2019-01-30T09:13:40.754Z,15.00
2019-01-30T09:14:40.714Z,15.50
2019-01-30T09:15:40.688Z,15.80
2019-01-30T09:16:40.682Z,14.80
2019-01-30T09:17:40.669Z,15.00
2019-01-30T09:18:40.669Z,14.80
2019-01-30T09:19:40.666Z,14.80
2019-01-30T09:20:40.636Z,14.00
2019-01-30T09:21:40.610Z,14.70
2019-01-30T09:22:40.632Z,14.90
2019-01-30T09:23:40.619Z,14.70
2019-01-30T09:24:40.609Z,14.60
2019-01-30T09:25:40.584Z,15.00
2019-01-30T09:26:40.584Z,16.30
2019-01-30T09:27:40.567Z,14.00
2019-01-30T09:28:40.563Z,13.80
2019-01-30T09:29:40.559Z,15.30
2019-01-30T09:30:40.537Z,14.20
2019-01-30T09:31:40.527Z,13.90
2019-01-30T09:32:40.512Z,13.80
2019-01-30T09:33:40.654Z,13.10
2019-01-30T09:34:40.521Z,13.90
2019-01-30T09:35:40.473Z,13.70
2019-01-30T09:36:40.474Z,13.80
2019-01-30T09:37:40.480Z,13.60
2019-01-30T09:38:40.469Z,13.80
2019-01-30T09:39:40.463Z,13.20
2019-01-30T09:40:40.433Z,13.40
2019-01-30T09:41:40.443Z,13.20
2019-01-30T09:42:40.395Z,13.00
2019-01-30T09:43:40.393Z,13.20
2019-01-30T09:44:40.407Z,14.00
2019-01-30T09:45:40.373Z,13.30
2019-01-30T09:46:40.380Z,13.40
2019-01-30T09:47:40.348Z,13.50
2019-01-30T09:48:40.333Z,13.90
2019-01-30T09:49:40.435Z,13.50
2019-01-30T09:50:40.341Z,13.40
2019-01-30T09:51:40.326Z,13.40
2019-01-30T09:52:40.299Z,12.90
2019-01-30T09:53:40.278Z,12.60
2019-01-30T09:54:40.314Z,12.60
2019-01-30T09:55:40.291Z,13.00
2019-01-30T09:56:40.268Z,12.60
2019-01-30T09:57:40.229Z,12.80
2019-01-30T09:58:40.218Z,12.90
2019-01-30T09:59:40.238Z,12.90
2019-01-30T10:00:40.214Z,12.30
2019-01-30T10:01:40.186Z,11.90
2019-01-30T10:02:40.191Z,11.80
2019-01-30T10:03:40.166Z,11.90
2019-01-30T10:04:40.148Z,12.20
2019-01-30T10:05:40.161Z,12.10
2019-01-30T10:06:40.168Z,12.20
2019-01-30T10:07:40.203Z,12.30
2019-01-30T10:08:40.106Z,12.00
2019-01-30T10:09:40.112Z,12.00
2019-01-30T10:10:40.115Z,11.70
2019-01-30T10:11:40.198Z,11.20
2019-01-30T10:12:40.083Z,11.90
2019-01-30T10:13:40.069Z,11.40
2019-01-30T10:14:40.064Z,11.20
2019-01-30T10:15:40.073Z,12.10
2019-01-30T10:16:40.043Z,11.50
2019-01-30T10:17:40.008Z,10.60
2019-01-30T10:18:40.001Z,10.80
2019-01-30T10:19:41.787Z,11.20
2019-01-30T10:20:40.000Z,10.80
2019-01-30T10:21:39.988Z,10.60
2019-01-30T10:22:39.969Z,11.30
2019-01-30T10:23:39.964Z,11.00
2019-01-30T10:24:39.939Z,11.30
2019-01-30T10:25:39.990Z,11.00
2019-01-30T10:26:39.928Z,11.30
2019-01-30T10:27:39.912Z,11.10
2019-01-30T10:28:39.890Z,10.70
2019-01-30T10:29:39.880Z,10.70
2019-01-30T10:30:39.909Z,10.40
2019-01-30T10:31:39.917Z,10.10
2019-01-30T10:32:39.862Z,10.30
2019-01-30T10:33:46.298Z,10.70
2019-01-30T10:34:40.845Z,11.10
2019-01-30T10:35:39.839Z,11.20
2019-01-30T10:36:39.851Z,10.70
2019-01-30T10:37:39.815Z,10.70
2019-01-30T10:38:39.836Z,10.00
2019-01-30T10:39:39.813Z,10.10
2019-01-30T10:40:39.787Z,11.10
2019-01-30T10:41:39.766Z,10.30
2019-01-30T10:42:39.744Z,10.80
2019-01-30T10:43:39.745Z,10.40
2019-01-30T10:44:39.750Z,10.10
2019-01-30T10:45:39.723Z,10.80
2019-01-30T10:46:39.715Z,11.10
2019-01-30T10:47:39.686Z,10.10
2019-01-30T10:48:39.690Z,10.90
2019-01-30T10:49:39.703Z,10.60
2019-01-30T10:50:39.672Z,10.80
2019-01-30T10:51:39.654Z,10.00
2019-01-30T10:52:39.629Z,10.30
2019-01-30T10:53:39.612Z,9.80
2019-01-30T10:54:39.610Z,10.80
2019-01-30T10:55:39.602Z,10.80
2019-01-30T10:56:39.635Z,10.90
2019-01-30T10:57:39.596Z,10.90
2019-01-30T10:58:39.558Z,10.80
2019-01-30T10:59:39.589Z,10.80
2019-01-30T11:00:39.547Z,10.50
2019-01-30T11:01:39.564Z,11.30
2019-01-30T11:02:39.552Z,10.20
2019-01-30T11:03:39.504Z,10.60
2019-01-30T11:04:39.500Z,10.50
2019-01-30T11:05:39.529Z,10.80
2019-01-30T11:06:39.534Z,10.30
2019-01-30T11:07:39.497Z,10.20
2019-01-30T11:08:39.456Z,10.20
2019-01-30T11:09:39.439Z,10.50
2019-01-30T11:10:39.443Z,9.90
2019-01-30T11:11:39.423Z,10.80
2019-01-30T11:12:39.440Z,10.30
2019-01-30T11:13:39.412Z,11.10
2019-01-30T11:14:41.005Z,10.40
2019-01-30T11:15:39.371Z,10.60
2019-01-30T11:16:39.395Z,10.60
2019-01-30T11:17:39.379Z,9.70
2019-01-30T11:18:39.358Z,10.40
2019-01-30T11:19:39.324Z,10.70
2019-01-30T11:20:39.342Z,10.30
2019-01-30T11:21:39.315Z,10.70
2019-01-30T11:22:39.354Z,9.20
2019-01-30T11:23:39.359Z,10.30
2019-01-30T11:24:39.272Z,11.00
2019-01-30T11:25:39.277Z,9.80
2019-01-30T11:26:39.271Z,11.30
2019-01-30T11:27:39.285Z,10.10
2019-01-30T11:28:39.279Z,10.40
2019-01-30T11:29:39.220Z,10.30
2019-01-30T11:30:39.275Z,10.50
2019-01-30T11:31:39.195Z,10.40
2019-01-30T11:32:39.200Z,10.90
2019-01-30T11:33:39.210Z,10.70
2019-01-30T11:34:39.193Z,10.70
2019-01-30T11:35:39.195Z,10.70
2019-01-30T11:36:39.151Z,10.20
2019-01-30T11:37:39.138Z,10.80
2019-01-30T11:38:39.154Z,10.80
2019-01-30T11:39:39.130Z,10.10
2019-01-30T11:40:39.117Z,10.40
2019-01-30T11:41:39.087Z,9.90
2019-01-30T11:42:39.116Z,10.60
2019-01-30T11:43:39.114Z,10.10
2019-01-30T11:44:39.131Z,10.00
2019-01-30T11:45:39.054Z,10.10
2019-01-30T11:46:39.031Z,10.90
2019-01-30T11:47:39.037Z,10.30
2019-01-30T11:48:39.032Z,10.60
2019-01-30T11:49:39.036Z,10.90
2019-01-30T11:50:39.020Z,10.70
2019-01-30T11:51:38.972Z,10.40
2019-01-30T11:52:38.961Z,9.70
2019-01-30T11:53:38.998Z,10.70
2019-01-30T11:54:39.192Z,10.60
2019-01-30T11:55:39.181Z,10.50
2019-01-30T11:56:38.937Z,10.00
2019-01-30T11:57:38.924Z,10.50
2019-01-30T11:58:38.910Z,10.30
2019-01-30T11:59:38.888Z,10.30
2019-01-30T12:00:38.873Z,10.80
2019-01-30T12:01:38.865Z,10.60
2019-01-30T12:02:47.714Z,10.80
2019-01-30T12:03:39.857Z,11.00
2019-01-30T12:04:38.852Z,10.70
2019-01-30T12:05:38.840Z,10.40
2019-01-30T12:06:38.810Z,10.40
2019-01-30T12:07:38.822Z,10.50
2019-01-30T12:08:38.790Z,11.30
2019-01-30T12:09:38.823Z,10.10
2019-01-30T12:10:38.793Z,10.20
2019-01-30T12:11:38.761Z,10.20
2019-01-30T12:12:38.756Z,9.70
2019-01-30T12:13:38.752Z,11.30
2019-01-30T12:14:38.758Z,10.60
2019-01-30T12:15:38.775Z,10.90
2019-01-30T12:16:38.704Z,10.40
2019-01-30T12:17:38.723Z,11.20
2019-01-30T12:18:38.688Z,10.90
2019-01-30T12:19:38.694Z,11.40
2019-01-30T12:20:38.646Z,11.40
2019-01-30T12:21:38.640Z,11.50
2019-01-30T12:22:38.664Z,11.40
2019-01-30T12:23:38.627Z,12.40
2019-01-30T12:24:38.610Z,12.40
2019-01-30T12:25:38.634Z,12.20
2019-01-30T12:26:38.581Z,12.80
2019-01-30T12:27:38.593Z,13.10
2019-01-30T12:28:38.565Z,13.20
2019-01-30T12:29:38.580Z,14.00
2019-01-30T12:30:38.557Z,13.50
2019-01-30T12:31:38.532Z,14.10
2019-01-30T12:32:38.551Z,13.80
2019-01-30T12:33:38.506Z,14.40
2019-01-30T12:34:38.514Z,14.10
2019-01-30T12:35:38.498Z,14.10
2019-01-30T12:36:38.472Z,13.90
2019-01-30T12:37:38.465Z,13.90
2019-01-30T12:38:38.459Z,14.20
2019-01-30T12:39:38.456Z,14.40
2019-01-30T12:40:38.474Z,14.10
2019-01-30T12:41:38.437Z,13.70
2019-01-30T12:42:38.415Z,14.30
2019-01-30T12:43:38.406Z,13.70
2019-01-30T12:44:38.405Z,13.70
2019-01-30T12:45:38.428Z,14.00
2019-01-30T12:46:38.377Z,13.20
2019-01-30T12:47:38.369Z,13.60
2019-01-30T12:48:38.335Z,13.60
2019-01-30T12:49:38.331Z,13.90
2019-01-30T12:50:38.321Z,13.00
2019-01-30T12:51:38.334Z,13.80
2019-01-30T12:52:38.291Z,14.20
2019-01-30T12:53:38.282Z,13.50
2019-01-30T12:54:38.277Z,14.10
2019-01-30T12:55:38.274Z,13.40
2019-01-30T12:56:38.300Z,12.60
2019-01-30T12:57:38.240Z,13.10
2019-01-30T12:58:38.244Z,13.30
2019-01-30T12:59:38.222Z,12.50
2019-01-30T13:00:38.218Z,13.90
2019-01-30T13:01:38.216Z,12.70
2019-01-30T13:02:38.198Z,13.30
2019-01-30T13:03:38.198Z,12.80
2019-01-30T13:04:39.116Z,12.00
2019-01-30T13:05:38.152Z,12.70
2019-01-30T13:06:38.157Z,8.60